sensor_id;sensor_type;location;lat;lon;timestamp;P1;durP1;ratioP1;P2;durP2;ratioP2
85154;SDS011;75523;53.218;6.564;2024-03-29T00:01:45;33.63;;;31.73;;
85154;SDS011;75523;53.218;6.564;2024-03-29T00:04:10;31.23;;;29.52;;
85154;SDS011;75523;53.218;6.564;2024-03-29T00:06:36;32.85;;;31.10;;
85154;SDS011;75523;53.218;6.564;2024-03-29T00:09:01;33.15;;;31.67;;
85154;SDS011;75523;53.218;6.564;2024-03-29T00:11:27;31.90;;;30.40;;
85154;SDS011;75523;53.218;6.564;2024-03-29T00:13:52;32.78;;;31.17;;
85154;SDS011;75523;53.218;6.564;2024-03-29T00:16:18;34.13;;;32.42;;
85154;SDS011;75523;53.218;6.564;2024-03-29T00:18:44;34.00;;;32.15;;
85154;SDS011;75523;53.218;6.564;2024-03-29T00:21:09;32.67;;;30.73;;
85154;SDS011;75523;53.218;6.564;2024-03-29T00:23:38;29.55;;;28.05;;
85154;SDS011;75523;53.218;6.564;2024-03-29T00:26:04;32.47;;;30.88;;
85154;SDS011;75523;53.218;6.564;2024-03-29T00:28:29;32.38;;;30.73;;
85154;SDS011;75523;53.218;6.564;2024-03-29T00:30:55;33.42;;;31.73;;
85154;SDS011;75523;53.218;6.564;2024-03-29T00:33:20;29.38;;;27.67;;
85154;SDS011;75523;53.218;6.564;2024-03-29T00:35:46;30.50;;;28.83;;
85154;SDS011;75523;53.218;6.564;2024-03-29T00:38:11;34.75;;;32.58;;
85154;SDS011;75523;53.218;6.564;2024-03-29T00:40:37;33.53;;;31.95;;
85154;SDS011;75523;53.218;6.564;2024-03-29T00:43:02;32.10;;;30.50;;
85154;SDS011;75523;53.218;6.564;2024-03-29T00:45:28;32.38;;;30.77;;
85154;SDS011;75523;53.218;6.564;2024-03-29T00:47:53;33.63;;;31.77;;
85154;SDS011;75523;53.218;6.564;2024-03-29T00:50:19;34.55;;;32.35;;
85154;SDS011;75523;53.218;6.564;2024-03-29T00:52:45;34.53;;;32.75;;
85154;SDS011;75523;53.218;6.564;2024-03-29T00:55:13;34.63;;;32.70;;
85154;SDS011;75523;53.218;6.564;2024-03-29T00:57:38;35.60;;;33.80;;
85154;SDS011;75523;53.218;6.564;2024-03-29T01:00:04;34.17;;;32.25;;
85154;SDS011;75523;53.218;6.564;2024-03-29T01:02:30;33.65;;;31.80;;
85154;SDS011;75523;53.218;6.564;2024-03-29T01:04:55;31.42;;;29.63;;
85154;SDS011;75523;53.218;6.564;2024-03-29T01:07:21;33.10;;;31.48;;
85154;SDS011;75523;53.218;6.564;2024-03-29T01:09:47;34.72;;;32.83;;
85154;SDS011;75523;53.218;6.564;2024-03-29T01:12:12;34.55;;;32.67;;
85154;SDS011;75523;53.218;6.564;2024-03-29T01:14:38;33.38;;;31.58;;
85154;SDS011;75523;53.218;6.564;2024-03-29T01:17:03;32.45;;;30.85;;
85154;SDS011;75523;53.218;6.564;2024-03-29T01:19:29;34.42;;;32.30;;
85154;SDS011;75523;53.218;6.564;2024-03-29T01:21:54;36.47;;;34.55;;
85154;SDS011;75523;53.218;6.564;2024-03-29T01:24:20;34.97;;;33.08;;
85154;SDS011;75523;53.218;6.564;2024-03-29T01:26:45;34.28;;;32.15;;
85154;SDS011;75523;53.218;6.564;2024-03-29T01:29:11;36.50;;;34.50;;
85154;SDS011;75523;53.218;6.564;2024-03-29T01:31:36;30.17;;;28.58;;
85154;SDS011;75523;53.218;6.564;2024-03-29T01:34:02;36.08;;;34.28;;
85154;SDS011;75523;53.218;6.564;2024-03-29T01:36:28;34.95;;;33.10;;
85154;SDS011;75523;53.218;6.564;2024-03-29T01:38:53;33.22;;;31.63;;
85154;SDS011;75523;53.218;6.564;2024-03-29T01:41:22;33.60;;;31.90;;
85154;SDS011;75523;53.218;6.564;2024-03-29T01:43:48;33.08;;;31.27;;
85154;SDS011;75523;53.218;6.564;2024-03-29T01:46:14;36.88;;;35.05;;
85154;SDS011;75523;53.218;6.564;2024-03-29T01:48:40;35.15;;;33.13;;
85154;SDS011;75523;53.218;6.564;2024-03-29T01:51:06;35.65;;;33.85;;
85154;SDS011;75523;53.218;6.564;2024-03-29T01:53:31;35.78;;;33.53;;
85154;SDS011;75523;53.218;6.564;2024-03-29T01:55:57;36.83;;;34.88;;
85154;SDS011;75523;53.218;6.564;2024-03-29T02:00:51;33.40;;;31.70;;
85154;SDS011;75523;53.218;6.564;2024-03-29T02:03:19;34.13;;;32.33;;
85154;SDS011;75523;53.218;6.564;2024-03-29T02:05:46;34.20;;;32.25;;
85154;SDS011;75523;53.218;6.564;2024-03-29T02:08:12;34.03;;;32.22;;
85154;SDS011;75523;53.218;6.564;2024-03-29T02:10:38;33.60;;;31.80;;
85154;SDS011;75523;53.218;6.564;2024-03-29T02:13:04;32.03;;;30.48;;
85154;SDS011;75523;53.218;6.564;2024-03-29T02:15:30;33.00;;;31.27;;
85154;SDS011;75523;53.218;6.564;2024-03-29T02:17:56;34.53;;;32.88;;
85154;SDS011;75523;53.218;6.564;2024-03-29T02:20:22;34.40;;;32.50;;
85154;SDS011;75523;53.218;6.564;2024-03-29T02:22:54;33.08;;;31.08;;
85154;SDS011;75523;53.218;6.564;2024-03-29T02:25:21;35.83;;;33.78;;
85154;SDS011;75523;53.218;6.564;2024-03-29T02:27:47;34.65;;;32.55;;
85154;SDS011;75523;53.218;6.564;2024-03-29T02:30:16;31.00;;;29.50;;
85154;SDS011;75523;53.218;6.564;2024-03-29T02:32:42;33.45;;;31.73;;
85154;SDS011;75523;53.218;6.564;2024-03-29T02:35:07;35.17;;;33.30;;
85154;SDS011;75523;53.218;6.564;2024-03-29T02:37:34;32.05;;;30.35;;
85154;SDS011;75523;53.218;6.564;2024-03-29T02:40:00;35.70;;;34.08;;
85154;SDS011;75523;53.218;6.564;2024-03-29T02:42:26;34.83;;;33.03;;
85154;SDS011;75523;53.218;6.564;2024-03-29T02:44:51;38.03;;;36.00;;
85154;SDS011;75523;53.218;6.564;2024-03-29T02:47:17;32.22;;;30.45;;
85154;SDS011;75523;53.218;6.564;2024-03-29T02:49:45;35.67;;;33.37;;
85154;SDS011;75523;53.218;6.564;2024-03-29T02:52:10;34.10;;;32.05;;
85154;SDS011;75523;53.218;6.564;2024-03-29T02:54:35;32.28;;;30.65;;
85154;SDS011;75523;53.218;6.564;2024-03-29T02:57:01;32.72;;;31.13;;
85154;SDS011;75523;53.218;6.564;2024-03-29T02:59:27;31.80;;;29.73;;
85154;SDS011;75523;53.218;6.564;2024-03-29T03:01:52;35.67;;;33.70;;
85154;SDS011;75523;53.218;6.564;2024-03-29T03:04:18;34.47;;;32.78;;
85154;SDS011;75523;53.218;6.564;2024-03-29T03:06:43;34.97;;;33.10;;
85154;SDS011;75523;53.218;6.564;2024-03-29T03:09:09;31.73;;;30.05;;
85154;SDS011;75523;53.218;6.564;2024-03-29T03:11:53;34.50;;;32.47;;
85154;SDS011;75523;53.218;6.564;2024-03-29T03:14:19;35.42;;;33.45;;
85154;SDS011;75523;53.218;6.564;2024-03-29T03:16:44;34.35;;;32.38;;
85154;SDS011;75523;53.218;6.564;2024-03-29T03:19:09;36.55;;;34.63;;
85154;SDS011;75523;53.218;6.564;2024-03-29T03:21:35;32.95;;;31.35;;
85154;SDS011;75523;53.218;6.564;2024-03-29T03:24:01;36.00;;;34.05;;
85154;SDS011;75523;53.218;6.564;2024-03-29T03:26:26;33.15;;;31.10;;
85154;SDS011;75523;53.218;6.564;2024-03-29T03:28:51;40.65;;;38.28;;
85154;SDS011;75523;53.218;6.564;2024-03-29T03:31:17;35.08;;;33.15;;
85154;SDS011;75523;53.218;6.564;2024-03-29T03:33:43;36.83;;;34.72;;
85154;SDS011;75523;53.218;6.564;2024-03-29T03:36:08;37.13;;;35.28;;
85154;SDS011;75523;53.218;6.564;2024-03-29T03:38:34;38.00;;;35.90;;
85154;SDS011;75523;53.218;6.564;2024-03-29T03:41:01;34.83;;;33.28;;
85154;SDS011;75523;53.218;6.564;2024-03-29T03:43:27;36.47;;;34.65;;
85154;SDS011;75523;53.218;6.564;2024-03-29T03:45:52;34.97;;;33.15;;
85154;SDS011;75523;53.218;6.564;2024-03-29T03:48:18;35.42;;;33.63;;
85154;SDS011;75523;53.218;6.564;2024-03-29T03:50:44;33.50;;;31.77;;
85154;SDS011;75523;53.218;6.564;2024-03-29T03:53:09;36.67;;;34.22;;
85154;SDS011;75523;53.218;6.564;2024-03-29T03:55:35;35.53;;;33.65;;
85154;SDS011;75523;53.218;6.564;2024-03-29T03:58:02;35.05;;;33.10;;
85154;SDS011;75523;53.218;6.564;2024-03-29T04:00:28;34.83;;;33.10;;
85154;SDS011;75523;53.218;6.564;2024-03-29T04:02:53;36.28;;;34.42;;
85154;SDS011;75523;53.218;6.564;2024-03-29T04:05:20;34.47;;;32.63;;
85154;SDS011;75523;53.218;6.564;2024-03-29T04:07:46;34.30;;;32.45;;
85154;SDS011;75523;53.218;6.564;2024-03-29T04:10:11;38.38;;;36.50;;
85154;SDS011;75523;53.218;6.564;2024-03-29T04:12:37;37.25;;;35.33;;
85154;SDS011;75523;53.218;6.564;2024-03-29T04:15:03;34.03;;;32.33;;
85154;SDS011;75523;53.218;6.564;2024-03-29T04:17:29;34.70;;;32.88;;
85154;SDS011;75523;53.218;6.564;2024-03-29T04:19:58;37.75;;;35.67;;
85154;SDS011;75523;53.218;6.564;2024-03-29T04:22:24;32.47;;;30.98;;
85154;SDS011;75523;53.218;6.564;2024-03-29T04:24:50;34.47;;;32.78;;
85154;SDS011;75523;53.218;6.564;2024-03-29T04:27:15;32.88;;;31.00;;
85154;SDS011;75523;53.218;6.564;2024-03-29T04:29:41;31.98;;;30.13;;
85154;SDS011;75523;53.218;6.564;2024-03-29T04:32:07;34.95;;;33.13;;
85154;SDS011;75523;53.218;6.564;2024-03-29T04:34:33;32.30;;;30.55;;
85154;SDS011;75523;53.218;6.564;2024-03-29T04:36:58;35.13;;;33.47;;
85154;SDS011;75523;53.218;6.564;2024-03-29T04:39:24;36.00;;;34.25;;
85154;SDS011;75523;53.218;6.564;2024-03-29T04:41:49;34.72;;;33.10;;
85154;SDS011;75523;53.218;6.564;2024-03-29T04:44:23;35.08;;;33.28;;
85154;SDS011;75523;53.218;6.564;2024-03-29T04:46:49;36.47;;;34.33;;
85154;SDS011;75523;53.218;6.564;2024-03-29T04:49:15;33.97;;;32.22;;
85154;SDS011;75523;53.218;6.564;2024-03-29T04:51:42;33.87;;;32.17;;
85154;SDS011;75523;53.218;6.564;2024-03-29T04:54:08;31.90;;;30.25;;
85154;SDS011;75523;53.218;6.564;2024-03-29T04:56:34;33.78;;;31.85;;
85154;SDS011;75523;53.218;6.564;2024-03-29T04:59:01;34.78;;;32.95;;
85154;SDS011;75523;53.218;6.564;2024-03-29T05:01:28;36.88;;;34.97;;
85154;SDS011;75523;53.218;6.564;2024-03-29T05:03:54;33.95;;;32.20;;
85154;SDS011;75523;53.218;6.564;2024-03-29T05:06:19;34.17;;;32.28;;
85154;SDS011;75523;53.218;6.564;2024-03-29T05:08:45;31.55;;;30.05;;
85154;SDS011;75523;53.218;6.564;2024-03-29T05:11:10;29.80;;;28.27;;
85154;SDS011;75523;53.218;6.564;2024-03-29T05:13:39;33.88;;;32.25;;
85154;SDS011;75523;53.218;6.564;2024-03-29T05:16:05;34.55;;;32.83;;
85154;SDS011;75523;53.218;6.564;2024-03-29T05:18:30;32.50;;;30.77;;
85154;SDS011;75523;53.218;6.564;2024-03-29T05:20:56;33.45;;;31.80;;
85154;SDS011;75523;53.218;6.564;2024-03-29T05:23:22;34.67;;;32.97;;
85154;SDS011;75523;53.218;6.564;2024-03-29T05:25:47;33.20;;;31.42;;
85154;SDS011;75523;53.218;6.564;2024-03-29T05:28:14;35.03;;;33.15;;
85154;SDS011;75523;53.218;6.564;2024-03-29T05:30:40;31.65;;;30.13;;
85154;SDS011;75523;53.218;6.564;2024-03-29T05:33:05;34.65;;;32.85;;
85154;SDS011;75523;53.218;6.564;2024-03-29T05:35:32;32.50;;;31.02;;
85154;SDS011;75523;53.218;6.564;2024-03-29T05:37:58;34.20;;;32.50;;
85154;SDS011;75523;53.218;6.564;2024-03-29T05:40:24;33.05;;;31.17;;
85154;SDS011;75523;53.218;6.564;2024-03-29T05:42:52;31.75;;;30.15;;
85154;SDS011;75523;53.218;6.564;2024-03-29T05:45:26;33.22;;;31.58;;
85154;SDS011;75523;53.218;6.564;2024-03-29T05:47:55;32.30;;;30.73;;
85154;SDS011;75523;53.218;6.564;2024-03-29T05:50:21;33.03;;;31.02;;
85154;SDS011;75523;53.218;6.564;2024-03-29T05:52:47;31.58;;;29.88;;
85154;SDS011;75523;53.218;6.564;2024-03-29T05:55:12;30.63;;;29.05;;
85154;SDS011;75523;53.218;6.564;2024-03-29T05:57:38;32.30;;;30.88;;
85154;SDS011;75523;53.218;6.564;2024-03-29T06:00:07;33.67;;;31.73;;
85154;SDS011;75523;53.218;6.564;2024-03-29T06:02:36;29.90;;;28.50;;
85154;SDS011;75523;53.218;6.564;2024-03-29T06:05:02;33.03;;;31.52;;
85154;SDS011;75523;53.218;6.564;2024-03-29T06:07:27;32.58;;;30.77;;
85154;SDS011;75523;53.218;6.564;2024-03-29T06:09:54;30.65;;;29.23;;
85154;SDS011;75523;53.218;6.564;2024-03-29T06:12:20;33.45;;;31.95;;
85154;SDS011;75523;53.218;6.564;2024-03-29T06:14:45;31.40;;;30.00;;
85154;SDS011;75523;53.218;6.564;2024-03-29T06:17:29;30.52;;;28.92;;
85154;SDS011;75523;53.218;6.564;2024-03-29T06:19:55;31.30;;;29.90;;
85154;SDS011;75523;53.218;6.564;2024-03-29T06:22:24;31.13;;;29.73;;
85154;SDS011;75523;53.218;6.564;2024-03-29T06:24:50;33.15;;;31.58;;
85154;SDS011;75523;53.218;6.564;2024-03-29T06:27:20;31.58;;;29.92;;
85154;SDS011;75523;53.218;6.564;2024-03-29T06:29:48;31.00;;;29.52;;
85154;SDS011;75523;53.218;6.564;2024-03-29T06:32:14;30.50;;;29.10;;
85154;SDS011;75523;53.218;6.564;2024-03-29T06:34:41;29.50;;;28.25;;
85154;SDS011;75523;53.218;6.564;2024-03-29T06:37:06;32.05;;;30.50;;
85154;SDS011;75523;53.218;6.564;2024-03-29T06:39:32;31.60;;;30.17;;
85154;SDS011;75523;53.218;6.564;2024-03-29T06:41:58;30.67;;;28.77;;
85154;SDS011;75523;53.218;6.564;2024-03-29T06:44:23;32.35;;;30.65;;
85154;SDS011;75523;53.218;6.564;2024-03-29T06:46:49;31.55;;;30.00;;
85154;SDS011;75523;53.218;6.564;2024-03-29T06:49:14;31.77;;;30.08;;
85154;SDS011;75523;53.218;6.564;2024-03-29T06:51:40;29.20;;;27.95;;
85154;SDS011;75523;53.218;6.564;2024-03-29T06:54:05;27.33;;;26.02;;
85154;SDS011;75523;53.218;6.564;2024-03-29T06:56:31;32.05;;;30.40;;
85154;SDS011;75523;53.218;6.564;2024-03-29T06:58:57;28.98;;;27.58;;
85154;SDS011;75523;53.218;6.564;2024-03-29T07:03:50;33.27;;;31.57;;
85154;SDS011;75523;53.218;6.564;2024-03-29T07:06:15;30.63;;;29.23;;
85154;SDS011;75523;53.218;6.564;2024-03-29T07:08:41;28.95;;;27.58;;
85154;SDS011;75523;53.218;6.564;2024-03-29T07:11:06;30.35;;;28.95;;
85154;SDS011;75523;53.218;6.564;2024-03-29T07:13:32;31.23;;;29.67;;
85154;SDS011;75523;53.218;6.564;2024-03-29T07:16:00;28.95;;;27.58;;
85154;SDS011;75523;53.218;6.564;2024-03-29T07:18:26;30.77;;;29.15;;
85154;SDS011;75523;53.218;6.564;2024-03-29T07:20:52;29.08;;;27.52;;
85154;SDS011;75523;53.218;6.564;2024-03-29T07:23:17;28.55;;;27.20;;
85154;SDS011;75523;53.218;6.564;2024-03-29T07:25:44;32.10;;;30.60;;
85154;SDS011;75523;53.218;6.564;2024-03-29T07:28:10;27.63;;;26.42;;
85154;SDS011;75523;53.218;6.564;2024-03-29T07:30:39;28.30;;;26.75;;
85154;SDS011;75523;53.218;6.564;2024-03-29T07:33:05;30.30;;;28.90;;
85154;SDS011;75523;53.218;6.564;2024-03-29T07:35:31;27.92;;;26.83;;
85154;SDS011;75523;53.218;6.564;2024-03-29T07:37:56;29.35;;;28.05;;
85154;SDS011;75523;53.218;6.564;2024-03-29T07:40:22;29.13;;;27.58;;
85154;SDS011;75523;53.218;6.564;2024-03-29T07:42:47;26.42;;;25.13;;
85154;SDS011;75523;53.218;6.564;2024-03-29T07:45:13;30.40;;;28.35;;
85154;SDS011;75523;53.218;6.564;2024-03-29T07:47:38;29.52;;;27.98;;
85154;SDS011;75523;53.218;6.564;2024-03-29T07:50:04;28.45;;;26.77;;
85154;SDS011;75523;53.218;6.564;2024-03-29T07:52:31;29.57;;;28.27;;
85154;SDS011;75523;53.218;6.564;2024-03-29T07:54:58;27.75;;;26.35;;
85154;SDS011;75523;53.218;6.564;2024-03-29T07:57:25;28.83;;;27.15;;
85154;SDS011;75523;53.218;6.564;2024-03-29T07:59:50;28.25;;;26.60;;
85154;SDS011;75523;53.218;6.564;2024-03-29T08:02:16;28.50;;;27.15;;
85154;SDS011;75523;53.218;6.564;2024-03-29T08:04:41;26.55;;;24.75;;
85154;SDS011;75523;53.218;6.564;2024-03-29T08:07:09;25.98;;;24.50;;
85154;SDS011;75523;53.218;6.564;2024-03-29T08:09:36;27.45;;;26.30;;
85154;SDS011;75523;53.218;6.564;2024-03-29T08:12:02;31.67;;;29.83;;
85154;SDS011;75523;53.218;6.564;2024-03-29T08:14:28;26.85;;;25.65;;
85154;SDS011;75523;53.218;6.564;2024-03-29T08:16:53;27.20;;;25.80;;
85154;SDS011;75523;53.218;6.564;2024-03-29T08:19:19;28.77;;;27.35;;
85154;SDS011;75523;53.218;6.564;2024-03-29T08:21:45;27.80;;;26.35;;
85154;SDS011;75523;53.218;6.564;2024-03-29T08:24:10;28.27;;;26.73;;
85154;SDS011;75523;53.218;6.564;2024-03-29T08:26:37;30.90;;;28.95;;
85154;SDS011;75523;53.218;6.564;2024-03-29T08:29:03;26.02;;;24.83;;
85154;SDS011;75523;53.218;6.564;2024-03-29T08:31:28;28.90;;;27.38;;
85154;SDS011;75523;53.218;6.564;2024-03-29T08:33:54;28.95;;;27.58;;
85154;SDS011;75523;53.218;6.564;2024-03-29T08:36:19;26.77;;;25.42;;
85154;SDS011;75523;53.218;6.564;2024-03-29T08:38:44;29.73;;;28.42;;
85154;SDS011;75523;53.218;6.564;2024-03-29T08:41:11;31.27;;;29.88;;
85154;SDS011;75523;53.218;6.564;2024-03-29T08:43:37;29.88;;;28.33;;
85154;SDS011;75523;53.218;6.564;2024-03-29T08:46:02;30.20;;;28.90;;
85154;SDS011;75523;53.218;6.564;2024-03-29T08:48:28;28.38;;;27.08;;
85154;SDS011;75523;53.218;6.564;2024-03-29T08:50:54;29.20;;;27.70;;
85154;SDS011;75523;53.218;6.564;2024-03-29T08:53:20;27.95;;;26.40;;
85154;SDS011;75523;53.218;6.564;2024-03-29T08:55:47;28.27;;;26.75;;
85154;SDS011;75523;53.218;6.564;2024-03-29T08:58:13;28.25;;;26.95;;
85154;SDS011;75523;53.218;6.564;2024-03-29T09:00:39;28.08;;;26.58;;
85154;SDS011;75523;53.218;6.564;2024-03-29T09:03:04;29.17;;;27.70;;
85154;SDS011;75523;53.218;6.564;2024-03-29T09:05:30;26.45;;;25.15;;
85154;SDS011;75523;53.218;6.564;2024-03-29T09:07:56;26.80;;;25.38;;
85154;SDS011;75523;53.218;6.564;2024-03-29T09:10:22;27.77;;;26.55;;
85154;SDS011;75523;53.218;6.564;2024-03-29T09:12:48;29.10;;;27.75;;
85154;SDS011;75523;53.218;6.564;2024-03-29T09:15:14;27.02;;;25.73;;
85154;SDS011;75523;53.218;6.564;2024-03-29T09:17:41;25.27;;;24.17;;
85154;SDS011;75523;53.218;6.564;2024-03-29T09:20:07;24.50;;;23.40;;
85154;SDS011;75523;53.218;6.564;2024-03-29T09:22:33;26.25;;;24.88;;
85154;SDS011;75523;53.218;6.564;2024-03-29T09:24:58;23.70;;;22.42;;
85154;SDS011;75523;53.218;6.564;2024-03-29T09:27:24;24.23;;;22.85;;
85154;SDS011;75523;53.218;6.564;2024-03-29T09:29:49;25.05;;;23.88;;
85154;SDS011;75523;53.218;6.564;2024-03-29T09:32:15;23.83;;;22.40;;
85154;SDS011;75523;53.218;6.564;2024-03-29T09:34:44;25.05;;;23.50;;
85154;SDS011;75523;53.218;6.564;2024-03-29T09:37:10;24.13;;;22.98;;
85154;SDS011;75523;53.218;6.564;2024-03-29T09:39:35;24.52;;;23.42;;
85154;SDS011;75523;53.218;6.564;2024-03-29T09:42:02;24.20;;;23.00;;
85154;SDS011;75523;53.218;6.564;2024-03-29T09:44:29;24.38;;;23.25;;
85154;SDS011;75523;53.218;6.564;2024-03-29T09:46:57;23.13;;;21.92;;
85154;SDS011;75523;53.218;6.564;2024-03-29T09:49:32;23.98;;;22.75;;
85154;SDS011;75523;53.218;6.564;2024-03-29T09:51:58;22.70;;;21.65;;
85154;SDS011;75523;53.218;6.564;2024-03-29T09:54:26;24.15;;;22.85;;
85154;SDS011;75523;53.218;6.564;2024-03-29T09:56:52;21.85;;;20.85;;
85154;SDS011;75523;53.218;6.564;2024-03-29T09:59:18;21.90;;;20.80;;
85154;SDS011;75523;53.218;6.564;2024-03-29T10:01:44;24.13;;;22.75;;
85154;SDS011;75523;53.218;6.564;2024-03-29T10:06:38;24.20;;;23.10;;
85154;SDS011;75523;53.218;6.564;2024-03-29T10:09:04;20.88;;;19.88;;
85154;SDS011;75523;53.218;6.564;2024-03-29T10:11:29;22.00;;;20.88;;
85154;SDS011;75523;53.218;6.564;2024-03-29T10:13:55;22.33;;;21.20;;
85154;SDS011;75523;53.218;6.564;2024-03-29T10:16:21;20.63;;;19.67;;
85154;SDS011;75523;53.218;6.564;2024-03-29T10:18:47;22.17;;;21.17;;
85154;SDS011;75523;53.218;6.564;2024-03-29T10:21:13;21.45;;;20.25;;
85154;SDS011;75523;53.218;6.564;2024-03-29T10:23:38;20.55;;;19.55;;
85154;SDS011;75523;53.218;6.564;2024-03-29T10:26:05;20.50;;;19.65;;
85154;SDS011;75523;53.218;6.564;2024-03-29T10:28:31;19.48;;;18.65;;
85154;SDS011;75523;53.218;6.564;2024-03-29T10:31:01;21.40;;;20.40;;
85154;SDS011;75523;53.218;6.564;2024-03-29T10:33:31;19.83;;;18.85;;
85154;SDS011;75523;53.218;6.564;2024-03-29T10:38:29;21.92;;;20.92;;
85154;SDS011;75523;53.218;6.564;2024-03-29T10:40:55;19.55;;;18.63;;
85154;SDS011;75523;53.218;6.564;2024-03-29T10:43:21;18.92;;;18.02;;
85154;SDS011;75523;53.218;6.564;2024-03-29T10:45:47;20.33;;;19.30;;
85154;SDS011;75523;53.218;6.564;2024-03-29T10:48:15;19.63;;;18.73;;
85154;SDS011;75523;53.218;6.564;2024-03-29T10:50:41;20.35;;;19.00;;
85154;SDS011;75523;53.218;6.564;2024-03-29T10:53:08;19.63;;;18.53;;
85154;SDS011;75523;53.218;6.564;2024-03-29T10:58:01;19.45;;;18.45;;
85154;SDS011;75523;53.218;6.564;2024-03-29T11:03:02;18.38;;;17.58;;
85154;SDS011;75523;53.218;6.564;2024-03-29T11:05:34;16.90;;;16.10;;
85154;SDS011;75523;53.218;6.564;2024-03-29T11:08:01;18.42;;;17.63;;
85154;SDS011;75523;53.218;6.564;2024-03-29T11:10:34;16.25;;;15.48;;
85154;SDS011;75523;53.218;6.564;2024-03-29T11:13:26;17.75;;;16.60;;
85154;SDS011;75523;53.218;6.564;2024-03-29T11:15:50;15.77;;;15.13;;
85154;SDS011;75523;53.218;6.564;2024-03-29T11:18:16;16.05;;;15.45;;
85154;SDS011;75523;53.218;6.564;2024-03-29T11:20:44;16.13;;;15.27;;
85154;SDS011;75523;53.218;6.564;2024-03-29T11:23:15;16.17;;;15.48;;
85154;SDS011;75523;53.218;6.564;2024-03-29T11:25:42;15.75;;;14.75;;
85154;SDS011;75523;53.218;6.564;2024-03-29T11:28:08;15.98;;;15.25;;
85154;SDS011;75523;53.218;6.564;2024-03-29T11:30:45;14.93;;;14.20;;
85154;SDS011;75523;53.218;6.564;2024-03-29T11:33:56;15.43;;;14.65;;
85154;SDS011;75523;53.218;6.564;2024-03-29T11:36:24;17.45;;;16.38;;
85154;SDS011;75523;53.218;6.564;2024-03-29T11:38:51;16.45;;;15.65;;
85154;SDS011;75523;53.218;6.564;2024-03-29T11:41:21;17.35;;;16.55;;
85154;SDS011;75523;53.218;6.564;2024-03-29T11:43:51;17.67;;;16.88;;
85154;SDS011;75523;53.218;6.564;2024-03-29T11:46:17;17.95;;;16.92;;
85154;SDS011;75523;53.218;6.564;2024-03-29T11:48:43;17.90;;;16.98;;
85154;SDS011;75523;53.218;6.564;2024-03-29T11:51:12;16.55;;;15.82;;
85154;SDS011;75523;53.218;6.564;2024-03-29T11:53:40;15.18;;;14.38;;
85154;SDS011;75523;53.218;6.564;2024-03-29T11:56:09;15.80;;;14.85;;
85154;SDS011;75523;53.218;6.564;2024-03-29T11:58:36;14.05;;;13.40;;
85154;SDS011;75523;53.218;6.564;2024-03-29T12:01:04;15.98;;;15.15;;
85154;SDS011;75523;53.218;6.564;2024-03-29T12:03:30;14.30;;;13.60;;
85154;SDS011;75523;53.218;6.564;2024-03-29T12:05:57;13.23;;;12.63;;
85154;SDS011;75523;53.218;6.564;2024-03-29T12:08:34;12.48;;;11.98;;
85154;SDS011;75523;53.218;6.564;2024-03-29T12:11:02;13.73;;;12.93;;
85154;SDS011;75523;53.218;6.564;2024-03-29T12:13:28;14.63;;;13.82;;
85154;SDS011;75523;53.218;6.564;2024-03-29T12:15:54;14.23;;;13.52;;
85154;SDS011;75523;53.218;6.564;2024-03-29T12:18:20;13.98;;;13.38;;
85154;SDS011;75523;53.218;6.564;2024-03-29T12:20:47;14.02;;;13.32;;
85154;SDS011;75523;53.218;6.564;2024-03-29T12:23:14;13.82;;;13.10;;
85154;SDS011;75523;53.218;6.564;2024-03-29T12:28:09;14.38;;;13.68;;
85154;SDS011;75523;53.218;6.564;2024-03-29T12:30:35;15.40;;;14.43;;
85154;SDS011;75523;53.218;6.564;2024-03-29T12:33:08;15.93;;;14.93;;
85154;SDS011;75523;53.218;6.564;2024-03-29T12:35:36;14.43;;;13.63;;
85154;SDS011;75523;53.218;6.564;2024-03-29T12:38:02;15.95;;;14.90;;
85154;SDS011;75523;53.218;6.564;2024-03-29T12:40:29;15.82;;;14.90;;
85154;SDS011;75523;53.218;6.564;2024-03-29T12:43:06;16.38;;;15.48;;
85154;SDS011;75523;53.218;6.564;2024-03-29T12:45:33;14.68;;;13.88;;
85154;SDS011;75523;53.218;6.564;2024-03-29T12:47:59;15.00;;;14.07;;
85154;SDS011;75523;53.218;6.564;2024-03-29T12:50:26;14.48;;;13.70;;
85154;SDS011;75523;53.218;6.564;2024-03-29T12:52:57;15.35;;;14.65;;
85154;SDS011;75523;53.218;6.564;2024-03-29T12:55:24;13.70;;;12.85;;
85154;SDS011;75523;53.218;6.564;2024-03-29T12:57:53;14.45;;;13.65;;
85154;SDS011;75523;53.218;6.564;2024-03-29T13:00:19;15.23;;;14.43;;
85154;SDS011;75523;53.218;6.564;2024-03-29T13:02:45;15.23;;;14.20;;
85154;SDS011;75523;53.218;6.564;2024-03-29T13:05:11;14.88;;;13.98;;
85154;SDS011;75523;53.218;6.564;2024-03-29T13:07:36;14.32;;;13.63;;
85154;SDS011;75523;53.218;6.564;2024-03-29T13:10:02;14.75;;;14.05;;
85154;SDS011;75523;53.218;6.564;2024-03-29T13:12:35;14.93;;;13.73;;
85154;SDS011;75523;53.218;6.564;2024-03-29T13:15:02;15.30;;;14.40;;
85154;SDS011;75523;53.218;6.564;2024-03-29T13:17:31;15.38;;;14.48;;
85154;SDS011;75523;53.218;6.564;2024-03-29T13:19:57;16.35;;;15.38;;
85154;SDS011;75523;53.218;6.564;2024-03-29T13:22:23;15.40;;;14.60;;
85154;SDS011;75523;53.218;6.564;2024-03-29T13:24:48;14.82;;;13.77;;
85154;SDS011;75523;53.218;6.564;2024-03-29T13:27:15;15.77;;;14.70;;
85154;SDS011;75523;53.218;6.564;2024-03-29T13:29:41;16.73;;;15.73;;
85154;SDS011;75523;53.218;6.564;2024-03-29T13:32:07;14.45;;;13.65;;
85154;SDS011;75523;53.218;6.564;2024-03-29T13:34:32;13.93;;;13.23;;
85154;SDS011;75523;53.218;6.564;2024-03-29T13:36:58;14.18;;;13.50;;
85154;SDS011;75523;53.218;6.564;2024-03-29T13:39:23;15.15;;;14.20;;
85154;SDS011;75523;53.218;6.564;2024-03-29T13:41:49;19.73;;;18.73;;
85154;SDS011;75523;53.218;6.564;2024-03-29T13:44:15;15.05;;;14.25;;
85154;SDS011;75523;53.218;6.564;2024-03-29T13:49:08;16.92;;;15.93;;
85154;SDS011;75523;53.218;6.564;2024-03-29T13:51:33;15.38;;;14.38;;
85154;SDS011;75523;53.218;6.564;2024-03-29T13:53:59;15.93;;;15.02;;
85154;SDS011;75523;53.218;6.564;2024-03-29T13:56:24;16.58;;;15.77;;
85154;SDS011;75523;53.218;6.564;2024-03-29T13:58:50;16.10;;;14.90;;
85154;SDS011;75523;53.218;6.564;2024-03-29T14:01:16;16.85;;;15.55;;
85154;SDS011;75523;53.218;6.564;2024-03-29T14:03:42;17.13;;;16.13;;
85154;SDS011;75523;53.218;6.564;2024-03-29T14:06:08;16.15;;;15.35;;
85154;SDS011;75523;53.218;6.564;2024-03-29T14:08:34;17.05;;;15.88;;
85154;SDS011;75523;53.218;6.564;2024-03-29T14:11:00;15.30;;;14.38;;
85154;SDS011;75523;53.218;6.564;2024-03-29T14:13:26;16.98;;;16.15;;
85154;SDS011;75523;53.218;6.564;2024-03-29T14:15:52;16.35;;;15.45;;
85154;SDS011;75523;53.218;6.564;2024-03-29T14:18:17;16.92;;;15.85;;
85154;SDS011;75523;53.218;6.564;2024-03-29T14:20:43;16.10;;;15.05;;
85154;SDS011;75523;53.218;6.564;2024-03-29T14:23:09;16.83;;;16.02;;
85154;SDS011;75523;53.218;6.564;2024-03-29T14:25:37;15.40;;;14.55;;
85154;SDS011;75523;53.218;6.564;2024-03-29T14:28:03;15.25;;;14.27;;
85154;SDS011;75523;53.218;6.564;2024-03-29T14:30:29;16.17;;;14.98;;
85154;SDS011;75523;53.218;6.564;2024-03-29T14:32:55;15.57;;;14.77;;
85154;SDS011;75523;53.218;6.564;2024-03-29T14:35:21;16.00;;;15.10;;
85154;SDS011;75523;53.218;6.564;2024-03-29T14:37:49;16.50;;;15.70;;